Pagina principale
METAR-TAF:

METAR-TAF

Aeroporti :

Bonaire, Antille olandesi

latitudine: 12-09N, longitudine: 068-17W, altezza: 6 m

Osservazione

Il bollettino è stato emesso 43 minuti fa, alle 07:55 UTC
Vento 9 kt da est
Temperature 28°C
Umidità 84%
Pressione 1011 hPa
Visibilità 10 km o più

METAR: TNCB 260755Z AUTO 09009KT 9999 FEW016/// SCT023/// 28/25 Q1011

Ora: 04:38 (08:38 UTC)

Previsione

Il bollettino è stato emesso 3 ore e 56 minuti fa, alle 04:42 UTC
Previsione valida dal 26 alle 06 UTC al 27 alle 12 UTC
Vento 12 kt da est
Visibilità 10 km o più
Poco nuvoloso ad un'altezza di 1800 ft

TAF: TNCB 260442Z 2606/2712 08012KT 9999 FEW018

Osservazioni e previsioni meteorologiche di più di 4000 aeroporti (messaggi METAR e TAF).

Le stazioni disponibili sono rappresentate dai dischi gialli e rossi sulla carta.

Puntare il mouse per vedere il nome della stazione.

Clicca sopra per visualizzare le osservazioni e previsioni meteorologiche.

Per cambiare la mappa : fare clic sui pulsanti verdi con una croce nera per ingrandire, il pulsante verde con un trattino per diminuire, o sulla freccia verde per le mappe adiacenti.


METAR-TAF: